Time;durP1;ratioP1;P1;durP2;ratioP2;P2;SDS_P1;SDS_P2;PMS_P1;PMS_P2;Temp;Humidity;BMP_temperature;BMP_pressure;BME280_temperature;BME280_humidity;BME280_pressure;Samples;Min_cycle;Max_cycle;Signal;HPM_P1;HPM_P2
2022/04/24 00:01:27;;;;;;;18.00;9.50;;;;;;;-144.47;47.00;53426.16;5090578;28;20425;-67
2022/04/24 00:03:53;;;;;;;15.88;9.35;;;;;;;-144.47;47.23;53436.09;5089644;28;20069;-66
2022/04/24 00:06:19;;;;;;;13.45;8.70;;;;;;;-144.47;47.28;53368.56;5090604;28;20039;-66
2022/04/24 00:08:44;;;;;;;14.73;8.98;;;;;;;-144.47;47.23;53380.47;5072336;28;20024;-66
2022/04/24 00:11:10;;;;;;;16.17;8.90;;;;;;;-144.47;47.39;53398.34;5090217;28;20026;-67
2022/04/24 00:13:38;;;;;;;14.75;9.13;;;;;;;-144.47;47.44;53404.31;5089345;28;20459;-66
2022/04/24 00:16:07;;;;;;;13.52;8.98;;;;;;;-144.47;47.57;53400.34;5090836;28;20031;-64
2022/04/24 00:18:33;;;;;;;15.02;9.55;;;;;;;-144.47;47.71;53340.75;5072522;28;20022;-69
2022/04/24 00:20:59;;;;;;;16.52;8.70;;;;;;;-144.47;47.87;53410.28;5090305;28;20032;-66
2022/04/24 00:23:24;;;;;;;13.35;8.70;;;;;;;-144.47;47.88;53378.50;5090343;28;20031;-65
2022/04/24 00:25:49;;;;;;;15.90;9.20;;;;;;;-144.47;48.12;53430.13;5090131;28;20024;-65
2022/04/24 00:28:14;;;;;;;13.82;9.07;;;;;;;-144.47;48.29;53408.28;5090070;28;20035;-66
2022/04/24 00:30:40;;;;;;;17.67;9.60;;;;;;;-144.47;48.36;53406.31;5090294;28;20024;-68
2022/04/24 00:33:05;;;;;;;16.50;9.63;;;;;;;-144.47;48.34;53378.50;5089975;28;20565;-66
2022/04/24 00:35:31;;;;;;;15.00;9.00;;;;;;;-144.47;48.44;53432.13;5090195;28;20031;-69
2022/04/24 00:37:57;;;;;;;14.85;9.50;;;;;;;-144.47;48.71;53412.25;5089497;28;20032;-66
2022/04/24 00:40:22;;;;;;;17.67;9.05;;;;;;;-144.47;48.97;53410.28;5080962;28;20032;-67
2022/04/24 00:42:48;;;;;;;14.07;8.75;;;;;;;-144.47;49.14;53436.09;5071506;28;20060;-69
2022/04/24 00:45:13;;;;;;;15.45;9.60;;;;;;;-144.47;49.12;53386.44;5089872;28;20465;-66
2022/04/24 00:47:41;;;;;;;14.77;9.13;;;;;;;-144.47;49.39;53414.25;5088371;28;20401;-67
2022/04/24 00:50:07;;;;;;;15.07;9.07;;;;;;;-144.47;49.79;53380.47;5089221;28;20029;-67
2022/04/24 00:52:33;;;;;;;13.10;9.15;;;;;;;-144.47;49.92;53404.31;5089647;28;20646;-65
2022/04/24 00:54:58;;;;;;;19.55;10.77;;;;;;;-144.47;50.00;53372.53;5090696;28;20157;-66
2022/04/24 00:57:23;;;;;;;19.83;10.68;;;;;;;-144.47;49.93;53404.31;5089488;28;20061;-66
2022/04/24 00:59:49;;;;;;;17.48;10.88;;;;;;;-144.47;50.15;53386.44;5090234;28;20645;-67
2022/04/24 01:02:14;;;;;;;19.38;12.32;;;;;;;-144.47;50.40;53388.41;5089995;28;20020;-67
2022/04/24 01:04:39;;;;;;;21.20;14.32;;;;;;;-144.47;50.77;53394.38;5071153;28;20337;-67
2022/04/24 01:07:06;;;;;;;22.52;13.95;;;;;;;-144.47;50.48;53406.31;5089668;28;20028;-64
2022/04/24 01:09:33;;;;;;;22.58;12.20;;;;;;;-144.47;50.87;53412.25;5089852;28;20044;-65
2022/04/24 01:11:59;;;;;;;19.20;12.60;;;;;;;-144.47;50.91;53410.28;5089130;28;20081;-68
2022/04/24 01:14:26;;;;;;;19.73;12.02;;;;;;;-144.47;51.28;53410.28;5088715;28;20020;-65
2022/04/24 01:16:53;;;;;;;21.60;11.65;;;;;;;-144.47;51.23;53408.28;5088722;28;20063;-68
2022/04/24 01:19:19;;;;;;;20.77;11.65;;;;;;;-144.47;51.28;53453.97;5089599;28;20030;-67
2022/04/24 01:21:46;;;;;;;18.23;10.48;;;;;;;-144.47;51.50;53406.31;5089405;28;20098;-67
2022/04/24 01:24:13;;;;;;;17.88;11.52;;;;;;;-144.47;51.88;53414.25;5071677;28;20059;-67
2022/04/24 01:26:38;;;;;;;19.48;11.43;;;;;;;-144.47;51.98;53436.09;5089884;28;20118;-65
2022/04/24 01:29:05;;;;;;;16.23;10.70;;;;;;;-144.47;51.69;53448.00;5089311;28;20081;-66
2022/04/24 01:31:31;;;;;;;17.25;11.43;;;;;;;-144.47;52.09;53402.31;5089135;28;20420;-67
2022/04/24 01:33:56;;;;;;;16.48;10.70;;;;;;;-144.47;51.96;53412.25;5082013;28;20016;-65
2022/04/24 01:36:22;;;;;;;18.40;11.27;;;;;;;-144.47;52.24;53424.19;5089074;28;20512;-67
2022/04/24 01:38:47;;;;;;;20.25;11.60;;;;;;;-144.47;52.21;53410.28;5069290;28;20038;-65
2022/04/24 01:41:13;;;;;;;17.83;11.02;;;;;;;-144.47;52.19;53473.84;5070555;28;20042;-65
2022/04/24 01:43:38;;;;;;;15.50;10.18;;;;;;;-144.47;52.24;53392.41;5088690;28;20032;-67
2022/04/24 01:46:08;;;;;;;15.13;10.93;;;;;;;-144.47;52.56;53394.38;5089088;28;20062;-67
2022/04/24 01:48:34;;;;;;;18.60;11.30;;;;;;;-144.47;52.82;53424.19;5089099;28;20016;-67
2022/04/24 01:51:04;;;;;;;18.08;10.65;;;;;;;-144.47;52.81;53455.97;5088043;28;20028;-65
2022/04/24 01:53:31;;;;;;;19.92;10.90;;;;;;;-144.47;53.06;53442.06;5088879;28;20036;-66
2022/04/24 01:55:57;;;;;;;18.80;11.63;;;;;;;-144.47;53.07;53432.13;5088441;28;20028;-67
2022/04/24 01:58:24;;;;;;;16.80;10.20;;;;;;;-144.47;53.21;53434.09;5088169;28;20524;-66
2022/04/24 02:00:50;;;;;;;17.02;10.70;;;;;;;-144.47;53.16;53416.22;5088725;28;20097;-66
2022/04/24 02:03:15;;;;;;;15.73;10.20;;;;;;;-144.47;53.27;53412.25;5088865;28;20424;-65
2022/04/24 02:05:40;;;;;;;17.83;11.40;;;;;;;-144.47;53.45;53416.22;5087388;28;20047;-66
2022/04/24 02:08:06;;;;;;;19.05;11.73;;;;;;;-144.47;53.48;53414.25;5088383;28;20032;-67
2022/04/24 02:10:32;;;;;;;16.77;10.77;;;;;;;-144.47;53.88;53416.22;5087588;28;20036;-67
2022/04/24 02:12:57;;;;;;;16.70;10.85;;;;;;;-144.47;53.82;53398.34;5088271;28;20039;-67
2022/04/24 02:15:23;;;;;;;18.05;10.68;;;;;;;-144.47;54.00;53430.13;5088766;28;20028;-65
2022/04/24 02:17:48;;;;;;;16.55;10.32;;;;;;;-144.47;53.88;53426.16;5088606;28;20024;-65
2022/04/24 02:20:13;;;;;;;16.90;10.13;;;;;;;-144.47;54.05;53394.38;5089065;28;20028;-65
2022/04/24 02:22:39;;;;;;;17.13;10.88;;;;;;;-144.47;54.03;53414.25;5088636;28;20382;-66
2022/04/24 02:25:04;;;;;;;16.75;10.15;;;;;;;-144.47;54.19;53412.25;5089134;28;20018;-65
2022/04/24 02:27:30;;;;;;;15.95;9.57;;;;;;;-144.47;54.10;53414.25;5089056;28;20461;-66
2022/04/24 02:29:56;;;;;;;17.90;10.95;;;;;;;-144.47;54.22;53436.09;5088610;28;20028;-67
2022/04/24 02:32:21;;;;;;;15.30;9.75;;;;;;;-144.47;54.33;53392.41;5087853;28;20032;-67
2022/04/24 02:34:47;;;;;;;16.00;10.30;;;;;;;-144.47;54.31;53420.22;5088246;28;20021;-66
2022/04/24 02:37:12;;;;;;;16.95;10.50;;;;;;;-144.47;54.37;53418.22;5088630;28;20396;-65
2022/04/24 02:39:38;;;;;;;16.73;10.65;;;;;;;-144.47;54.50;53416.22;5089519;28;20016;-65
2022/04/24 02:42:03;;;;;;;19.15;10.90;;;;;;;-144.47;54.33;53406.31;5085762;28;20028;-66
2022/04/24 02:44:29;;;;;;;15.77;10.63;;;;;;;-144.47;54.50;53448.00;5070168;28;20120;-66
2022/04/24 02:46:54;;;;;;;22.33;10.60;;;;;;;-144.47;54.42;53434.09;5086459;28;20028;-65
2022/04/24 02:49:19;;;;;;;22.08;10.25;;;;;;;-144.47;54.72;53469.88;5088211;28;20039;-66
2022/04/24 02:51:45;;;;;;;18.58;10.55;;;;;;;-144.47;54.60;53455.97;5088409;28;20016;-67
2022/04/24 02:54:11;;;;;;;16.58;9.98;;;;;;;-144.47;54.70;53422.19;5087916;28;20028;-66
2022/04/24 02:56:36;;;;;;;16.65;10.02;;;;;;;-144.47;54.67;53428.16;5088151;28;20028;-66
2022/04/24 02:59:02;;;;;;;17.95;11.15;;;;;;;-144.47;54.77;53440.06;5088019;28;20087;-65
2022/04/24 03:01:28;;;;;;;17.75;10.90;;;;;;;-144.47;54.89;53418.22;5087703;28;20488;-67
2022/04/24 03:03:53;;;;;;;15.82;11.05;;;;;;;-144.47;54.86;53436.09;5088534;28;20508;-66
2022/04/24 03:06:18;;;;;;;16.33;10.18;;;;;;;-144.47;54.67;53414.25;5087720;28;20040;-68
2022/04/24 03:08:46;;;;;;;19.52;11.10;;;;;;;-144.47;54.75;53434.09;5087532;28;20028;-67
2022/04/24 03:11:12;;;;;;;14.38;10.02;;;;;;;-144.47;54.79;53428.16;5087593;28;20032;-66
2022/04/24 03:13:37;;;;;;;16.98;10.68;;;;;;;-144.47;54.93;53424.19;5086841;28;20032;-68
2022/04/24 03:16:02;;;;;;;16.15;10.38;;;;;;;-144.47;54.88;53450.00;5069326;28;20073;-66
2022/04/24 03:18:28;;;;;;;16.17;9.95;;;;;;;-144.47;55.08;53430.13;5087952;28;20052;-68
2022/04/24 03:20:54;;;;;;;19.92;11.15;;;;;;;-144.47;54.97;53434.09;5089959;28;20073;-68
2022/04/24 03:23:19;;;;;;;21.55;9.90;;;;;;;-144.47;55.25;53420.22;5092228;28;20109;-69
2022/04/24 03:25:45;;;;;;;18.90;10.70;;;;;;;-144.47;55.34;53412.25;5073906;28;20028;-66
2022/04/24 03:28:10;;;;;;;18.23;10.68;;;;;;;-144.47;55.37;53444.03;5091234;28;20024;-65
2022/04/24 03:30:35;;;;;;;17.23;11.20;;;;;;;-144.47;55.72;53446.03;5091059;28;20056;-66
2022/04/24 03:33:01;;;;;;;16.77;10.50;;;;;;;-144.47;55.56;53438.09;5091380;28;20067;-68
2022/04/24 03:35:26;;;;;;;20.67;11.35;;;;;;;-144.47;55.77;53432.13;5091601;28;20040;-65
2022/04/24 03:37:52;;;;;;;16.63;10.50;;;;;;;-144.47;55.76;53412.25;5090987;28;20032;-65
2022/04/24 03:40:17;;;;;;;18.27;11.15;;;;;;;-144.47;55.70;53440.06;5091446;28;20550;-65
2022/04/24 03:42:42;;;;;;;16.63;10.48;;;;;;;-144.47;56.02;53396.38;5072756;28;20017;-65
2022/04/24 03:45:11;;;;;;;19.92;10.68;;;;;;;-144.47;55.94;53424.19;5091813;28;20100;-65
2022/04/24 03:47:36;;;;;;;20.48;11.20;;;;;;;-144.47;55.99;53432.13;5072248;28;20032;-67
2022/04/24 03:50:02;;;;;;;20.15;11.57;;;;;;;-144.47;55.82;53416.22;5090805;28;20031;-64
2022/04/24 03:52:27;;;;;;;15.15;10.27;;;;;;;-144.47;55.82;53418.22;5090178;28;20043;-66
2022/04/24 03:54:53;;;;;;;17.60;10.60;;;;;;;-144.47;56.02;53487.75;5091247;28;20023;-68
2022/04/24 03:57:18;;;;;;;15.60;10.88;;;;;;;-144.47;56.07;53444.03;5090821;28;20028;-67
2022/04/24 03:59:43;;;;;;;18.85;11.40;;;;;;;-144.47;56.09;53434.09;5091223;28;20501;-67
2022/04/24 04:02:09;;;;;;;17.50;10.75;;;;;;;-144.47;56.04;53436.09;5090845;28;20502;-65
2022/04/24 04:04:34;;;;;;;15.32;11.02;;;;;;;-144.47;56.29;53416.22;5088300;28;20028;-66
2022/04/24 04:06:59;;;;;;;17.25;10.80;;;;;;;-144.47;56.39;53400.34;5091358;28;20020;-67
2022/04/24 04:09:24;;;;;;;19.70;11.60;;;;;;;-144.47;56.16;53428.16;5091640;28;20035;-66
2022/04/24 04:11:50;;;;;;;16.23;10.55;;;;;;;-144.47;56.14;53450.00;5090988;28;20036;-67
2022/04/24 04:14:15;;;;;;;20.85;11.10;;;;;;;-144.47;56.29;53436.09;5090557;28;20024;-67
2022/04/24 04:16:41;;;;;;;17.85;11.57;;;;;;;-144.47;56.25;53402.31;5091384;28;20020;-66
2022/04/24 04:19:06;;;;;;;18.73;11.68;;;;;;;-144.47;56.30;53469.88;5072610;28;20016;-66
2022/04/24 04:21:31;;;;;;;18.98;10.82;;;;;;;-144.47;56.39;53408.28;5091118;28;20020;-67
2022/04/24 04:23:57;;;;;;;16.80;11.13;;;;;;;-144.47;56.50;53408.28;5090472;28;20366;-66
2022/04/24 04:26:22;;;;;;;16.17;10.50;;;;;;;-144.47;56.47;53404.31;5072366;28;20040;-67
2022/04/24 04:28:48;;;;;;;20.48;10.48;;;;;;;-144.47;56.79;53459.94;5071744;28;20020;-65
2022/04/24 04:31:14;;;;;;;20.90;11.57;;;;;;;-144.47;56.67;53418.22;5089458;28;20401;-68
2022/04/24 04:33:40;;;;;;;16.73;11.15;;;;;;;-144.47;56.68;53432.13;5089848;28;20031;-66
2022/04/24 04:36:06;;;;;;;20.08;11.13;;;;;;;-144.47;56.59;53426.16;5090037;28;20047;-68
2022/04/24 04:38:31;;;;;;;15.13;10.75;;;;;;;-144.47;56.62;53473.84;5088257;28;20111;-69
2022/04/24 04:40:57;;;;;;;15.15;10.57;;;;;;;-144.47;56.64;53428.16;5090303;28;20119;-67
2022/04/24 04:43:22;;;;;;;18.05;10.85;;;;;;;-144.47;56.98;53414.25;5089522;28;20607;-66
2022/04/24 04:45:48;;;;;;;19.77;10.75;;;;;;;-144.47;56.59;53452.00;5090819;28;20024;-66
2022/04/24 04:48:13;;;;;;;16.00;10.30;;;;;;;-144.47;56.84;53444.03;5087292;28;20032;-70
2022/04/24 04:50:39;;;;;;;16.65;10.50;;;;;;;-144.47;56.62;53448.00;5089672;28;20440;-68
2022/04/24 04:53:04;;;;;;;20.17;10.38;;;;;;;-144.47;56.79;53418.22;5090014;28;20109;-66
2022/04/24 04:55:29;;;;;;;16.90;10.50;;;;;;;-144.47;56.66;53430.13;5071747;28;20047;-66
2022/04/24 04:57:56;;;;;;;19.27;11.18;;;;;;;-144.47;56.53;53452.00;5089656;28;20016;-67
2022/04/24 05:00:22;;;;;;;20.60;11.55;;;;;;;-144.47;56.73;53440.06;5090238;28;20497;-65
2022/04/24 05:02:47;;;;;;;17.58;11.20;;;;;;;-144.47;56.52;53440.06;5071063;28;20126;-66
2022/04/24 05:05:12;;;;;;;17.55;10.52;;;;;;;-144.47;56.51;53452.00;5090133;28;20442;-65
2022/04/24 05:07:38;;;;;;;19.45;11.45;;;;;;;-144.47;56.59;53414.25;5089664;28;20050;-69
2022/04/24 05:10:04;;;;;;;20.08;10.65;;;;;;;-144.47;56.74;53402.31;5089965;28;20019;-65
2022/04/24 05:12:30;;;;;;;19.65;11.07;;;;;;;-144.47;56.48;53450.00;5088421;28;20028;-66
2022/04/24 05:15:03;;;;;;;18.67;10.55;;;;;;;-144.47;56.38;53428.16;5089396;28;20024;-68
2022/04/24 05:17:29;;;;;;;16.98;11.07;;;;;;;-144.47;56.37;53416.22;5070566;28;20246;-67
2022/04/24 05:19:55;;;;;;;21.25;11.48;;;;;;;-144.47;56.34;53461.91;5089022;28;20043;-67
2022/04/24 05:22:21;;;;;;;19.38;11.50;;;;;;;-144.47;56.26;53452.00;5070690;28;20491;-67
2022/04/24 05:24:46;;;;;;;17.75;11.02;;;;;;;-144.47;56.37;53416.22;5090181;28;20047;-67
2022/04/24 05:27:11;;;;;;;18.23;11.18;;;;;;;-144.47;56.22;53412.25;5088687;28;20040;-67
2022/04/24 05:32:07;;;;;;;21.80;11.10;;;;;;;-144.47;55.93;53430.13;5062679;28;20052;-70
2022/04/24 05:34:32;;;;;;;21.38;11.80;;;;;;;-144.47;55.79;53442.06;5067869;28;20029;-70
2022/04/24 05:36:57;;;;;;;20.58;11.00;;;;;;;-144.47;55.55;53444.03;5051424;28;20028;-66
2022/04/24 05:39:22;;;;;;;21.40;11.82;;;;;;;-144.47;55.76;53420.22;5066495;28;20040;-70
2022/04/24 05:41:48;;;;;;;18.83;11.93;;;;;;;-144.47;55.29;53432.13;5065393;28;20488;-70
2022/04/24 05:44:13;;;;;;;18.33;11.30;;;;;;;-144.47;55.29;53396.38;5063855;28;20036;-70
2022/04/24 05:46:38;;;;;;;18.17;11.05;;;;;;;-144.47;55.09;53440.06;5063966;28;20492;-70
2022/04/24 05:49:04;;;;;;;22.02;11.07;;;;;;;-144.47;55.27;53402.31;5064193;28;20449;-70
2022/04/24 05:51:29;;;;;;;17.48;10.93;;;;;;;-144.47;55.34;53448.00;5062429;28;20062;-70
2022/04/24 05:53:55;;;;;;;19.30;10.93;;;;;;;-144.47;54.99;53448.00;5067114;28;20398;-71
2022/04/24 05:56:20;;;;;;;17.23;11.05;;;;;;;-144.47;54.72;53440.06;5062970;28;20135;-69
2022/04/24 05:58:46;;;;;;;22.92;12.93;;;;;;;-144.47;54.83;53436.09;5046708;28;20021;-69
2022/04/24 06:01:11;;;;;;;16.92;10.80;;;;;;;-144.47;54.39;53446.03;5059788;28;20111;-69
2022/04/24 06:03:40;;;;;;;19.55;11.68;;;;;;;-144.47;54.30;53410.28;5062273;28;20444;-69
2022/04/24 06:06:05;;;;;;;23.00;12.05;;;;;;;-144.47;54.28;53412.25;5061606;28;20064;-69
2022/04/24 06:08:30;;;;;;;21.15;11.43;;;;;;;-144.47;53.96;53450.00;5061482;28;20421;-70
2022/04/24 06:10:56;;;;;;;19.45;11.07;;;;;;;-144.47;53.97;53414.25;5064620;28;20040;-71
2022/04/24 06:13:22;;;;;;;17.80;11.80;;;;;;;-144.47;53.52;53400.34;5045657;28;20087;-73
2022/04/24 06:15:48;;;;;;;23.63;11.75;;;;;;;-144.47;53.36;53380.47;5041206;28;20111;-68
2022/04/24 06:18:13;;;;;;;16.80;10.88;;;;;;;-144.47;53.11;53396.38;5059065;28;20120;-70
2022/04/24 06:20:39;;;;;;;17.67;10.82;;;;;;;-144.47;53.32;53404.31;5056349;28;20036;-68
2022/04/24 06:23:04;;;;;;;30.33;10.85;;;;;;;-144.47;53.33;53418.22;5062372;28;20130;-71
2022/04/24 06:25:33;;;;;;;21.35;11.25;;;;;;;-144.47;52.51;53384.44;5064029;28;20039;-71
2022/04/24 06:28:00;;;;;;;19.13;10.68;;;;;;;-144.47;52.32;53404.31;5057758;28;20021;-71
2022/04/24 06:30:27;;;;;;;24.15;12.10;;;;;;;-144.47;52.14;53430.13;5063177;28;20025;-70
2022/04/24 06:32:53;;;;;;;20.55;10.90;;;;;;;-144.47;51.62;53378.50;5064725;28;20535;-73
2022/04/24 06:35:19;;;;;;;20.05;11.68;;;;;;;-144.47;51.49;53434.09;5060923;28;20116;-71
2022/04/24 06:37:54;;;;;;;19.45;11.68;;;;;;;-144.47;51.64;53368.56;5038776;28;20037;-70
2022/04/24 06:40:23;;;;;;;21.15;11.60;;;;;;;-144.47;51.35;53412.25;5063066;28;20493;-68
2022/04/24 06:42:52;;;;;;;21.25;11.57;;;;;;;-144.47;51.02;53396.38;5057731;28;20021;-71
2022/04/24 06:45:21;;;;;;;21.15;11.43;;;;;;;-144.47;51.16;53368.56;5059408;28;20423;-71
2022/04/24 06:47:46;;;;;;;18.38;12.13;;;;;;;-144.47;51.30;53446.03;5056084;28;20036;-69
2022/04/24 06:50:12;;;;;;;22.10;11.65;;;;;;;-144.47;50.97;53422.19;5058875;28;20043;-69
2022/04/24 06:52:37;;;;;;;19.08;11.60;;;;;;;-144.47;50.49;53436.09;5058423;28;20044;-70
2022/04/24 06:55:05;;;;;;;21.35;11.95;;;;;;;-144.47;50.51;53426.16;5059221;28;20094;-73
2022/04/24 06:57:30;;;;;;;18.75;11.75;;;;;;;-144.47;50.71;53396.38;5062177;28;20103;-71
2022/04/24 06:59:55;;;;;;;18.80;12.27;;;;;;;-144.47;50.46;53402.31;5061722;28;20465;-73
2022/04/24 07:02:21;;;;;;;22.98;13.00;;;;;;;-144.47;50.48;53348.69;5055449;28;20365;-71
2022/04/24 07:04:46;;;;;;;17.98;12.18;;;;;;;-144.47;50.10;53380.47;5055263;28;20428;-70
2022/04/24 07:07:11;;;;;;;18.52;11.88;;;;;;;-144.47;50.20;53368.56;5053305;28;20322;-71
2022/04/24 07:09:37;;;;;;;19.63;12.02;;;;;;;-144.47;50.05;53380.47;5061377;28;20028;-69
2022/04/24 07:12:02;;;;;;;19.13;12.25;;;;;;;-144.47;50.15;53338.75;5055605;28;20040;-69
2022/04/24 07:14:27;;;;;;;17.77;11.80;;;;;;;-144.47;50.08;53380.47;5061839;28;20043;-68
2022/04/24 07:16:53;;;;;;;19.77;12.65;;;;;;;-144.47;49.80;53410.28;5054048;28;20036;-70
2022/04/24 07:19:19;;;;;;;19.55;11.88;;;;;;;-144.47;49.88;53356.63;5061514;28;20116;-71
2022/04/24 07:21:44;;;;;;;18.98;12.02;;;;;;;-144.47;49.62;53368.56;5060800;28;20040;-69
2022/04/24 07:24:10;;;;;;;18.85;12.48;;;;;;;-144.47;49.31;53364.59;5057545;28;20080;-70
2022/04/24 07:26:35;;;;;;;18.67;11.98;;;;;;;-144.47;49.41;53396.38;5036039;28;20478;-68
2022/04/24 07:29:00;;;;;;;22.40;12.65;;;;;;;-144.47;49.03;53366.56;5037624;28;21465;-72
2022/04/24 07:31:26;;;;;;;21.83;13.18;;;;;;;-144.47;48.83;53370.53;5065815;28;20055;-69
2022/04/24 07:33:52;;;;;;;24.08;12.90;;;;;;;-144.47;48.64;53346.72;5040946;28;20037;-69
2022/04/24 07:36:18;;;;;;;20.70;12.98;;;;;;;-144.47;48.55;53358.63;5072225;28;20505;-68
2022/04/24 07:38:43;;;;;;;20.13;12.02;;;;;;;-144.47;48.15;53390.41;5068874;28;20040;-70
2022/04/24 07:41:08;;;;;;;21.63;13.50;;;;;;;-144.47;48.20;53382.47;5060143;28;20085;-69
2022/04/24 07:43:34;;;;;;;24.65;12.60;;;;;;;-144.47;48.04;53344.72;5057189;28;20063;-71
2022/04/24 07:45:59;;;;;;;20.33;13.02;;;;;;;-144.47;47.79;53348.69;5062771;28;20032;-69
2022/04/24 07:48:25;;;;;;;23.20;13.32;;;;;;;-144.47;47.74;53350.69;5060422;28;20524;-68
2022/04/24 07:50:51;;;;;;;22.40;13.07;;;;;;;-144.47;47.27;53384.44;5058867;28;20036;-71
2022/04/24 07:53:18;;;;;;;28.60;17.65;;;;;;;-144.47;47.25;53344.72;5060520;28;20120;-69
2022/04/24 07:55:45;;;;;;;30.08;18.10;;;;;;;-144.47;47.41;53354.66;5059065;28;20060;-68
2022/04/24 07:58:11;;;;;;;19.90;13.23;;;;;;;-144.47;47.44;53340.75;5059929;28;20333;-72
2022/04/24 08:00:38;;;;;;;23.45;12.57;;;;;;;-144.47;47.49;53370.53;5060464;28;20405;-71
2022/04/24 08:03:03;;;;;;;20.52;12.50;;;;;;;-144.47;47.04;53376.50;5061261;28;20025;-70
2022/04/24 08:05:33;;;;;;;22.15;12.10;;;;;;;-144.47;46.97;53374.50;5061470;28;20134;-70
2022/04/24 08:08:02;;;;;;;23.90;12.85;;;;;;;-144.47;46.99;53360.63;5061581;28;20056;-70
2022/04/24 08:10:30;;;;;;;20.38;13.27;;;;;;;-144.47;46.98;53372.53;5060845;28;20044;-69
2022/04/24 08:12:55;;;;;;;21.48;12.52;;;;;;;-144.47;46.71;53356.63;5060987;28;20040;-69
2022/04/24 08:15:20;;;;;;;20.95;12.48;;;;;;;-144.47;46.51;53364.59;5062106;28;21415;-70
2022/04/24 08:17:46;;;;;;;21.02;12.50;;;;;;;-144.47;46.61;53316.91;5061668;28;20110;-70
2022/04/24 08:20:13;;;;;;;16.70;11.43;;;;;;;-144.47;46.32;53380.47;5061681;28;20106;-72
2022/04/24 08:22:40;;;;;;;21.30;11.90;;;;;;;-144.47;46.05;53314.91;5041234;28;20021;-68
2022/04/24 08:25:07;;;;;;;21.38;11.23;;;;;;;-144.47;45.99;53360.63;5042823;28;20055;-73
2022/04/24 08:27:32;;;;;;;18.75;12.32;;;;;;;-144.47;45.28;53330.81;5041756;28;20041;-70
2022/04/24 08:29:58;;;;;;;17.23;11.02;;;;;;;-144.47;44.87;53362.59;5059143;28;20155;-69
2022/04/24 08:32:25;;;;;;;16.88;11.85;;;;;;;-144.47;44.46;53336.78;5059329;28;20040;-72
2022/04/24 08:34:51;;;;;;;22.35;10.05;;;;;;;-144.47;43.15;53368.56;5061341;28;20104;-70
2022/04/24 08:37:16;;;;;;;15.38;10.18;;;;;;;-144.47;42.82;53310.94;5062793;28;20071;-73
2022/04/24 08:39:42;;;;;;;13.77;9.65;;;;;;;-144.47;42.64;53354.66;5038055;28;20049;-72
2022/04/24 08:42:10;;;;;;;20.45;9.35;;;;;;;-144.47;42.34;53338.75;5053288;28;20636;-70
2022/04/24 08:44:36;;;;;;;14.45;9.20;;;;;;;-144.47;41.70;53320.88;5056155;28;20132;-72
2022/04/24 08:47:03;;;;;;;16.45;9.27;;;;;;;-144.47;41.84;53324.84;5035733;28;20052;-72
2022/04/24 08:49:32;;;;;;;21.77;9.95;;;;;;;-144.47;42.71;53362.59;5052715;28;20643;-70
2022/04/24 08:52:01;;;;;;;15.00;8.75;;;;;;;-144.47;41.15;53308.97;5063619;28;20420;-72
2022/04/24 08:54:30;;;;;;;19.95;8.65;;;;;;;-144.47;41.00;53330.81;5057379;28;20136;-73
2022/04/24 08:56:59;;;;;;;14.30;9.18;;;;;;;-144.47;40.73;53320.88;5064199;28;20072;-73
2022/04/24 08:59:24;;;;;;;16.52;8.00;;;;;;;-144.47;40.35;53344.72;5051567;28;20039;-73
2022/04/24 09:01:52;;;;;;;14.07;8.07;;;;;;;-144.47;39.70;53293.06;5050547;28;20082;-69
2022/04/24 09:04:21;;;;;;;16.75;8.05;;;;;;;-144.47;39.86;53332.81;5065937;28;20048;-74
2022/04/24 09:06:57;;;;;;;14.00;7.45;;;;;;;-144.47;39.86;53318.91;5032790;28;20386;-69
2022/04/24 09:09:23;;;;;;;18.08;7.45;;;;;;;-144.47;39.54;53301.03;5047936;28;20040;-71
2022/04/24 09:11:48;;;;;;;16.45;8.45;;;;;;;-144.47;39.54;53326.84;5056138;28;20558;-72
2022/04/24 09:14:23;;;;;;;12.75;7.95;;;;;;;-144.47;39.80;53306.97;5070091;28;20124;-70
2022/04/24 09:16:49;;;;;;;15.02;7.68;;;;;;;-144.47;39.72;53328.81;5048836;28;20097;-71
2022/04/24 09:19:20;;;;;;;15.13;7.85;;;;;;;-144.47;39.98;53326.84;5066486;28;20454;-69
2022/04/24 09:21:50;;;;;;;15.50;8.50;;;;;;;-144.47;40.30;53324.84;5048283;28;20581;-69
2022/04/24 09:24:15;;;;;;;12.73;7.95;;;;;;;-144.47;40.36;53301.03;5061615;28;20079;-71
2022/04/24 09:26:51;;;;;;;18.33;7.80;;;;;;;-144.47;40.63;53312.94;5056162;28;20040;-71
2022/04/24 09:29:17;;;;;;;16.55;8.02;;;;;;;-144.47;40.78;53344.72;5051382;28;20052;-71
2022/04/24 09:31:47;;;;;;;17.38;8.38;;;;;;;-144.47;41.16;53334.78;5056934;28;20032;-73
2022/04/24 09:34:17;;;;;;;13.10;7.80;;;;;;;-144.47;41.20;53342.72;5060724;28;20029;-72
2022/04/24 09:36:44;;;;;;;14.95;7.57;;;;;;;-144.47;41.45;53316.91;5052808;28;20029;-72
2022/04/24 09:39:09;;;;;;;14.85;8.35;;;;;;;-144.47;41.85;53330.81;5061946;28;20485;-72
2022/04/24 09:41:36;;;;;;;13.48;8.00;;;;;;;-144.47;41.66;53334.78;5047541;28;20037;-72
2022/04/24 09:44:11;;;;;;;14.40;8.07;;;;;;;-144.47;41.86;53342.72;5052240;28;20037;-71
2022/04/24 09:46:37;;;;;;;13.07;8.25;;;;;;;-144.47;42.53;53342.72;5047825;28;20090;-71
2022/04/24 09:49:03;;;;;;;13.30;8.13;;;;;;;-144.47;42.68;53312.94;5050986;28;20131;-70
2022/04/24 09:51:28;;;;;;;16.70;8.13;;;;;;;-144.47;42.56;53354.66;5060341;28;20032;-73
2022/04/24 09:53:59;;;;;;;12.55;8.27;;;;;;;-144.47;42.40;53344.72;5060127;28;20194;-70
2022/04/24 09:56:26;;;;;;;15.23;7.55;;;;;;;-144.47;42.99;53336.78;5042544;28;20053;-72
2022/04/24 09:58:51;;;;;;;14.00;7.65;;;;;;;-144.47;43.40;53314.91;5046369;28;20048;-70
2022/04/24 10:01:18;;;;;;;14.70;7.65;;;;;;;-144.47;42.90;53332.81;5062937;28;20020;-71
2022/04/24 10:03:45;;;;;;;11.25;7.57;;;;;;;-144.47;42.67;53346.72;5043329;28;20066;-71
2022/04/24 10:06:11;;;;;;;14.57;7.22;;;;;;;-144.47;43.51;53320.88;5042352;28;20040;-71
2022/04/24 10:08:40;;;;;;;13.68;7.93;;;;;;;-144.47;42.88;53322.88;5062629;28;20033;-71
2022/04/24 10:11:06;;;;;;;13.70;7.45;;;;;;;-144.47;42.22;53299.03;5063437;28;20426;-70
2022/04/24 10:13:38;;;;;;;15.73;7.70;;;;;;;-144.47;41.58;53326.84;5065747;28;20085;-72
2022/04/24 10:16:14;;;;;;;17.95;7.93;;;;;;;-144.47;42.00;53324.84;5063407;28;20031;-72
2022/04/24 10:19:00;;;;;;;14.32;6.40;;;;;;;-144.47;41.47;53322.88;5062319;28;20029;-71
2022/04/24 10:21:50;;;;;;;13.25;7.20;;;;;;;-144.47;42.00;53297.03;5061197;28;20044;-69
2022/04/24 10:24:15;;;;;;;12.73;6.68;;;;;;;-144.47;41.54;53358.63;5065150;28;20126;-70
2022/04/24 10:26:51;;;;;;;14.60;7.35;;;;;;;-144.47;41.64;53320.88;5061421;28;20059;-72
2022/04/24 10:29:17;;;;;;;10.13;6.32;;;;;;;-144.47;41.11;53306.97;5038575;28;20079;-71
2022/04/24 10:31:44;;;;;;;14.48;7.15;;;;;;;-144.47;42.32;53308.97;5062388;28;20068;-72
2022/04/24 10:34:11;;;;;;;13.85;6.22;;;;;;;-144.47;40.87;53299.03;5059104;28;20047;-71
2022/04/24 10:36:58;;;;;;;12.80;5.50;;;;;;;-144.47;40.08;53312.94;5048161;28;20408;-72
2022/04/24 10:39:29;;;;;;;10.15;5.88;;;;;;;-144.47;41.04;53285.13;5065894;28;20081;-70
2022/04/24 10:41:59;;;;;;;10.55;5.63;;;;;;;-144.47;41.19;53289.09;5046931;28;20574;-70
2022/04/24 10:44:25;;;;;;;9.93;5.30;;;;;;;-144.47;41.69;53291.09;5065592;28;20036;-70
2022/04/24 10:46:53;;;;;;;11.13;5.63;;;;;;;-144.47;41.40;53344.72;5065384;28;20120;-70
2022/04/24 10:49:19;;;;;;;15.13;6.25;;;;;;;-144.47;41.48;53312.94;5060018;28;20028;-72
2022/04/24 10:51:57;;;;;;;11.05;5.68;;;;;;;-144.47;41.61;53328.81;5058113;28;20024;-71
2022/04/24 10:54:36;;;;;;;10.77;5.80;;;;;;;-144.47;40.71;53314.91;5067712;28;20037;-72
2022/04/24 10:57:15;;;;;;;12.07;5.65;;;;;;;-144.47;40.78;53324.84;5058768;28;20087;-71
2022/04/24 10:59:52;;;;;;;9.73;5.88;;;;;;;-144.47;41.64;53305.00;5066072;28;20036;-73
2022/04/24 11:02:28;;;;;;;12.00;6.07;;;;;;;-144.47;41.65;53322.88;5066356;28;20025;-70
2022/04/24 11:05:04;;;;;;;12.02;5.93;;;;;;;-144.47;41.63;53291.09;5045511;28;20043;-71